createdAt,value
2023-04-17T00:00:07.375Z,3.25
2023-04-17T00:02:40.384Z,3.35
2023-04-17T00:05:09.302Z,2.80
2023-04-17T00:07:41.525Z,4.28
2023-04-17T00:10:11.792Z,3.78
2023-04-17T00:12:39.923Z,2.28
2023-04-17T00:15:08.635Z,2.70
2023-04-17T00:17:36.858Z,3.10
2023-04-17T00:20:10.544Z,2.92
2023-04-17T00:22:39.405Z,5.03
2023-04-17T00:25:07.953Z,2.80
2023-04-17T00:30:18.350Z,2.67
2023-04-17T00:32:46.258Z,3.47
2023-04-17T00:35:14.903Z,2.15
2023-04-17T00:37:42.839Z,3.63
2023-04-17T00:40:11.704Z,2.85
2023-04-17T00:45:11.063Z,2.17
2023-04-17T00:47:40.240Z,3.70
2023-04-17T00:50:08.793Z,5.00
2023-04-17T00:52:36.807Z,3.00
2023-04-17T00:55:05.408Z,4.53
2023-04-17T00:57:34.734Z,2.95
2023-04-17T01:00:02.902Z,2.85
2023-04-17T01:02:31.339Z,2.33
2023-04-17T01:04:59.398Z,3.10
2023-04-17T01:07:28.226Z,3.80
2023-04-17T01:09:56.672Z,2.45
2023-04-17T01:12:25.517Z,3.72
2023-04-17T01:14:55.662Z,4.78
2023-04-17T01:17:26.526Z,6.00
2023-04-17T01:19:55.894Z,4.95
2023-04-17T01:22:23.920Z,4.20
2023-04-17T01:24:56.235Z,3.25
2023-04-17T01:27:26.237Z,2.50
2023-04-17T01:29:54.154Z,2.78
2023-04-17T01:32:22.386Z,5.35
2023-04-17T01:34:50.977Z,7.70
2023-04-17T01:37:19.830Z,6.47
2023-04-17T01:39:47.896Z,5.00
2023-04-17T01:42:16.136Z,4.78
2023-04-17T01:44:44.992Z,5.63
2023-04-17T01:47:13.485Z,5.47
2023-04-17T01:49:41.350Z,7.03
2023-04-17T01:52:09.353Z,6.30
2023-04-17T01:54:37.495Z,8.30
2023-04-17T01:57:05.504Z,6.82
2023-04-17T01:59:33.563Z,4.20
2023-04-17T02:02:01.759Z,4.28
2023-04-17T02:04:30.005Z,3.85
2023-04-17T02:06:58.086Z,3.58
2023-04-17T02:09:27.212Z,3.58
2023-04-17T02:11:55.216Z,4.65
2023-04-17T02:14:23.315Z,4.60
2023-04-17T02:16:51.359Z,5.45
2023-04-17T02:19:19.237Z,4.85
2023-04-17T02:21:47.204Z,4.43
2023-04-17T02:24:15.098Z,5.55
2023-04-17T02:26:43.419Z,5.13
2023-04-17T02:29:14.030Z,5.32
2023-04-17T02:31:43.148Z,4.68
2023-04-17T02:34:12.427Z,4.57
2023-04-17T02:36:41.689Z,5.28
2023-04-17T02:39:10.284Z,4.47
2023-04-17T02:41:40.423Z,4.50
2023-04-17T02:44:10.077Z,8.65
2023-04-17T02:46:38.859Z,4.65
2023-04-17T02:49:07.183Z,6.50
2023-04-17T02:51:35.161Z,4.85
2023-04-17T02:55:40.065Z,4.15
2023-04-17T02:58:15.954Z,5.15
2023-04-17T03:00:44.071Z,6.03
2023-04-17T03:03:16.462Z,6.20
2023-04-17T03:05:44.901Z,5.10
2023-04-17T03:08:13.144Z,4.40
2023-04-17T03:10:47.194Z,4.28
2023-04-17T03:13:15.127Z,3.40
2023-04-17T03:15:42.949Z,4.50
2023-04-17T03:18:10.940Z,4.07
2023-04-17T03:20:39.024Z,4.65
2023-04-17T03:23:07.057Z,5.70
2023-04-17T03:25:35.125Z,5.03
2023-04-17T03:28:03.359Z,4.43
2023-04-17T03:30:34.178Z,3.88
2023-04-17T03:33:06.745Z,4.93
2023-04-17T03:35:34.873Z,4.18
2023-04-17T03:38:07.038Z,3.45
2023-04-17T03:40:35.726Z,4.03
2023-04-17T03:43:03.733Z,4.57
2023-04-17T03:45:33.149Z,5.32
2023-04-17T03:48:02.118Z,4.45
2023-04-17T03:50:30.588Z,4.63
2023-04-17T03:52:58.516Z,4.25
2023-04-17T03:55:28.563Z,4.35
2023-04-17T03:57:56.658Z,4.60
2023-04-17T04:00:26.387Z,4.20
2023-04-17T04:03:00.236Z,4.72
2023-04-17T04:05:34.487Z,4.32
2023-04-17T04:08:02.788Z,4.72
2023-04-17T04:10:46.032Z,3.30
2023-04-17T04:13:19.521Z,4.38
2023-04-17T04:15:53.399Z,5.00
2023-04-17T04:18:23.773Z,5.43
2023-04-17T04:20:51.706Z,4.40
2023-04-17T04:23:28.388Z,4.57
2023-04-17T04:26:02.006Z,6.20
2023-04-17T04:28:48.110Z,6.43
2023-04-17T04:31:38.093Z,5.57
2023-04-17T04:34:06.673Z,7.35
2023-04-17T04:36:36.527Z,7.25
2023-04-17T04:39:20.551Z,5.57
2023-04-17T04:41:50.792Z,5.95
2023-04-17T04:44:21.280Z,5.32
2023-04-17T04:46:53.300Z,6.30
2023-04-17T04:49:21.747Z,5.53
2023-04-17T04:51:49.835Z,4.60
2023-04-17T04:54:18.181Z,4.93
2023-04-17T04:56:51.844Z,7.60
2023-04-17T04:59:20.034Z,9.75
2023-04-17T05:01:56.466Z,9.75
2023-04-17T05:04:25.076Z,7.07
2023-04-17T05:06:57.392Z,5.15
2023-04-17T05:09:25.365Z,6.93
2023-04-17T05:11:57.282Z,7.75
2023-04-17T05:16:55.508Z,5.10
2023-04-17T05:19:24.129Z,5.57
2023-04-17T05:21:59.890Z,7.50
2023-04-17T05:24:28.563Z,5.20
2023-04-17T05:26:57.398Z,5.88
2023-04-17T05:29:26.223Z,7.57
2023-04-17T05:31:58.043Z,7.10
2023-04-17T05:34:49.635Z,7.43
2023-04-17T05:37:21.427Z,6.15
2023-04-17T05:39:49.414Z,7.20
2023-04-17T05:42:18.018Z,8.50
2023-04-17T05:44:46.388Z,7.13
2023-04-17T05:47:14.352Z,6.75
2023-04-17T05:49:43.419Z,6.70
2023-04-17T05:52:12.080Z,7.05
2023-04-17T05:54:44.372Z,7.72
2023-04-17T05:57:12.639Z,7.72
2023-04-17T05:59:41.130Z,9.15
2023-04-17T06:02:11.219Z,12.13
2023-04-17T06:07:08.484Z,8.20
2023-04-17T06:09:38.194Z,11.88
2023-04-17T06:14:35.058Z,7.82
2023-04-17T06:17:07.690Z,10.43
2023-04-17T06:19:36.303Z,6.30
2023-04-17T06:22:04.734Z,9.02
2023-04-17T06:24:33.302Z,7.05
2023-04-17T06:27:02.487Z,8.70
2023-04-17T06:29:31.350Z,8.50
2023-04-17T06:31:59.813Z,9.20
2023-04-17T06:36:57.885Z,6.97
2023-04-17T06:39:26.229Z,7.32
2023-04-17T06:41:56.555Z,7.53
2023-04-17T06:44:29.123Z,7.32
2023-04-17T06:47:00.429Z,6.57
2023-04-17T06:49:33.712Z,8.20
2023-04-17T06:52:01.980Z,4.97
2023-04-17T06:54:30.130Z,4.63
2023-04-17T06:56:58.187Z,6.80
2023-04-17T06:59:26.477Z,7.38
2023-04-17T07:01:55.137Z,8.02
2023-04-17T07:04:23.919Z,5.03
2023-04-17T07:06:52.429Z,6.10
2023-04-17T07:09:20.747Z,10.48
2023-04-17T07:11:49.524Z,10.30
2023-04-17T07:14:17.620Z,4.95
2023-04-17T07:16:46.838Z,4.85
2023-04-17T07:19:15.378Z,13.50
2023-04-17T07:21:44.260Z,9.40
2023-04-17T07:24:12.457Z,11.85
2023-04-17T07:26:40.878Z,6.18
2023-04-17T07:29:09.650Z,4.53
2023-04-17T07:31:39.356Z,6.13
2023-04-17T07:34:08.041Z,14.02
2023-04-17T07:36:37.546Z,8.98
2023-04-17T07:39:07.588Z,6.10
2023-04-17T07:41:36.441Z,8.38
2023-04-17T07:44:06.230Z,9.73
2023-04-17T07:46:34.802Z,6.18
2023-04-17T07:49:03.370Z,6.90
2023-04-17T07:51:32.097Z,10.93
2023-04-17T07:54:00.653Z,5.63
2023-04-17T07:56:29.301Z,4.60
2023-04-17T07:58:58.683Z,5.50
2023-04-17T08:01:28.134Z,5.53
2023-04-17T08:03:56.750Z,5.53
2023-04-17T08:06:26.504Z,4.93
2023-04-17T08:08:55.029Z,7.40
2023-04-17T08:11:23.546Z,5.47
2023-04-17T08:13:52.144Z,7.03
2023-04-17T08:16:20.647Z,6.05
2023-04-17T08:18:49.210Z,6.35
2023-04-17T08:21:17.696Z,7.07
2023-04-17T08:23:46.298Z,6.88
2023-04-17T08:26:14.878Z,7.43
2023-04-17T08:28:43.295Z,6.57
2023-04-17T08:31:11.652Z,5.15
2023-04-17T08:33:40.333Z,7.18
2023-04-17T08:36:10.211Z,6.53
2023-04-17T08:38:39.054Z,7.05
2023-04-17T08:41:13.752Z,6.03
2023-04-17T08:43:44.001Z,8.88
2023-04-17T08:46:12.745Z,4.53
2023-04-17T08:51:09.599Z,4.72
2023-04-17T08:53:38.084Z,6.47
2023-04-17T08:56:09.078Z,3.95
2023-04-17T08:58:37.888Z,6.13
2023-04-17T09:01:16.179Z,6.53
2023-04-17T09:03:46.772Z,6.25
2023-04-17T09:06:16.570Z,5.93
2023-04-17T09:08:59.758Z,5.82
2023-04-17T09:11:28.956Z,4.60
2023-04-17T09:13:57.500Z,6.78
2023-04-17T09:16:26.084Z,4.85
2023-04-17T09:19:06.400Z,5.07
2023-04-17T09:21:35.768Z,5.95
2023-04-17T09:24:05.766Z,5.13
2023-04-17T09:26:34.488Z,5.13
2023-04-17T09:29:12.409Z,4.93
2023-04-17T09:31:43.383Z,4.75
2023-04-17T09:34:13.639Z,5.55
2023-04-17T09:36:44.054Z,7.32
2023-04-17T09:39:26.405Z,5.80
2023-04-17T09:42:10.739Z,4.28
2023-04-17T09:44:40.700Z,5.35
2023-04-17T09:47:11.712Z,5.55
2023-04-17T09:49:43.203Z,6.93
2023-04-17T09:52:12.873Z,5.50
2023-04-17T09:54:43.271Z,9.55
2023-04-17T09:57:11.908Z,8.45
2023-04-17T09:59:50.174Z,6.25
2023-04-17T10:02:20.298Z,5.93
2023-04-17T10:04:49.105Z,8.65
2023-04-17T10:07:18.232Z,9.23
2023-04-17T10:09:47.680Z,6.47
2023-04-17T10:12:19.138Z,6.47
2023-04-17T10:14:52.441Z,6.05
2023-04-17T10:17:37.581Z,4.55
2023-04-17T10:20:18.130Z,5.05
2023-04-17T10:22:49.753Z,5.95
2023-04-17T10:25:20.375Z,5.07
2023-04-17T10:28:09.271Z,4.43
2023-04-17T10:30:57.286Z,3.90
2023-04-17T10:33:26.823Z,5.00
2023-04-17T10:35:55.926Z,8.68
2023-04-17T10:38:36.544Z,5.00
2023-04-17T10:41:09.678Z,7.10
2023-04-17T10:43:42.346Z,5.75
2023-04-17T10:46:15.269Z,4.95
2023-04-17T10:48:49.991Z,6.10
2023-04-17T10:51:28.156Z,5.20
2023-04-17T10:53:59.107Z,6.57
2023-04-17T10:56:29.604Z,6.97
2023-04-17T10:59:30.371Z,6.47
2023-04-17T11:02:01.663Z,7.03
2023-04-17T11:04:32.214Z,6.22
2023-04-17T11:07:01.487Z,8.07
2023-04-17T11:09:30.376Z,7.35
2023-04-17T11:12:02.339Z,6.53
2023-04-17T11:14:31.514Z,6.90
2023-04-17T11:17:01.656Z,7.20
2023-04-17T11:19:32.478Z,7.57
2023-04-17T11:22:03.036Z,6.80
2023-04-17T11:24:32.537Z,8.52
2023-04-17T11:27:02.360Z,7.40
2023-04-17T11:29:31.222Z,6.75
2023-04-17T11:34:31.403Z,6.10
2023-04-17T11:37:01.867Z,7.28
2023-04-17T11:39:34.428Z,7.30
2023-04-17T11:42:03.813Z,6.95
2023-04-17T11:44:32.328Z,7.47
2023-04-17T11:47:02.360Z,5.72
2023-04-17T11:49:39.367Z,6.88
2023-04-17T11:52:07.813Z,8.13
2023-04-17T11:54:38.334Z,8.60
2023-04-17T11:57:08.196Z,7.22
2023-04-17T11:59:39.074Z,8.57
2023-04-17T12:02:09.111Z,11.65
2023-04-17T12:04:40.080Z,10.57
2023-04-17T12:07:21.323Z,7.50
2023-04-17T12:09:59.038Z,10.02
2023-04-17T12:12:27.606Z,8.25
2023-04-17T12:14:56.085Z,6.10
2023-04-17T12:17:24.619Z,9.00
2023-04-17T12:19:53.860Z,8.50
2023-04-17T12:22:23.585Z,10.65
2023-04-17T12:24:52.483Z,10.60
2023-04-17T12:27:20.894Z,8.65
2023-04-17T12:29:49.385Z,8.00
2023-04-17T12:32:17.777Z,9.77
2023-04-17T12:34:47.335Z,7.13
2023-04-17T12:37:16.475Z,11.23
2023-04-17T12:39:44.941Z,8.93
2023-04-17T12:42:13.515Z,7.18
2023-04-17T12:44:42.167Z,11.98
2023-04-17T12:49:39.108Z,7.40
2023-04-17T12:52:07.543Z,13.32
2023-04-17T12:54:36.345Z,10.63
2023-04-17T12:57:05.172Z,13.15
2023-04-17T12:59:34.428Z,5.82
2023-04-17T13:02:02.944Z,6.53
2023-04-17T13:07:00.745Z,6.30
2023-04-17T13:09:29.201Z,5.95
2023-04-17T13:11:58.320Z,8.23
2023-04-17T13:14:26.684Z,6.40
2023-04-17T13:16:55.253Z,7.43
2023-04-17T13:19:23.941Z,12.25
2023-04-17T13:24:20.981Z,9.60
2023-04-17T13:26:49.659Z,10.30
2023-04-17T13:29:19.510Z,9.68
2023-04-17T13:31:48.294Z,8.77
2023-04-17T13:34:16.903Z,6.20
2023-04-17T13:36:45.658Z,7.72
2023-04-17T13:39:15.359Z,6.90
2023-04-17T13:41:43.969Z,6.03
2023-04-17T13:46:42.020Z,13.90
2023-04-17T13:49:11.388Z,12.32
2023-04-17T13:51:40.086Z,8.95
2023-04-17T13:54:10.363Z,13.52
2023-04-17T13:56:39.017Z,7.03
2023-04-17T13:59:07.826Z,6.72
2023-04-17T14:01:36.480Z,5.93
2023-04-17T14:04:05.409Z,6.25
2023-04-17T14:06:35.217Z,8.95
2023-04-17T14:09:03.723Z,7.10
2023-04-17T14:11:32.333Z,6.70
2023-04-17T14:14:01.021Z,6.28
2023-04-17T14:16:29.842Z,5.65
2023-04-17T14:19:12.774Z,9.05
2023-04-17T14:21:43.208Z,8.25
2023-04-17T14:24:11.644Z,8.27
2023-04-17T14:26:40.301Z,6.15
2023-04-17T14:31:39.883Z,4.78
2023-04-17T14:34:08.286Z,5.00
2023-04-17T14:36:36.960Z,5.68
2023-04-17T14:39:05.352Z,9.10
2023-04-17T14:41:34.611Z,5.63
2023-04-17T14:44:03.268Z,6.63
2023-04-17T14:46:32.331Z,5.63
2023-04-17T14:49:01.106Z,6.38
2023-04-17T14:53:59.584Z,7.50
2023-04-17T14:58:56.229Z,6.38
2023-04-17T15:01:24.563Z,5.80
2023-04-17T15:03:53.252Z,6.30
2023-04-17T15:06:22.159Z,4.55
2023-04-17T15:11:19.565Z,7.38
2023-04-17T15:13:48.338Z,6.70
2023-04-17T15:16:16.953Z,8.30
2023-04-17T15:18:45.474Z,6.22
2023-04-17T15:21:16.883Z,5.82
2023-04-17T15:23:45.865Z,6.47
2023-04-17T15:28:42.581Z,7.15
2023-04-17T15:31:11.269Z,5.20
2023-04-17T15:33:39.682Z,7.68
2023-04-17T15:36:08.249Z,6.03
2023-04-17T15:38:36.689Z,6.40
2023-04-17T15:41:05.164Z,7.90
2023-04-17T15:43:33.655Z,5.43
2023-04-17T15:48:32.392Z,5.45
2023-04-17T15:51:03.752Z,7.78
2023-04-17T15:53:32.780Z,5.90
2023-04-17T15:58:29.646Z,12.07
2023-04-17T16:00:58.012Z,4.82
2023-04-17T16:03:26.720Z,6.82
2023-04-17T16:08:23.697Z,6.20
2023-04-17T16:10:52.378Z,6.93
2023-04-17T16:13:21.361Z,5.63
2023-04-17T16:18:18.942Z,8.55
2023-04-17T16:20:47.376Z,5.88
2023-04-17T16:23:16.061Z,7.88
2023-04-17T16:25:44.393Z,9.85
2023-04-17T16:28:12.840Z,3.85
2023-04-17T16:30:41.508Z,3.88
2023-04-17T16:33:10.085Z,4.43
2023-04-17T16:35:38.541Z,6.05
2023-04-17T16:38:07.380Z,7.25
2023-04-17T16:40:35.955Z,7.28
2023-04-17T16:43:04.377Z,9.68
2023-04-17T16:45:32.852Z,6.82
2023-04-17T16:48:01.658Z,5.20
2023-04-17T16:50:30.301Z,6.30
2023-04-17T16:52:58.757Z,5.35
2023-04-17T16:55:27.196Z,4.63
2023-04-17T16:57:56.088Z,4.20
2023-04-17T17:00:24.568Z,4.97
2023-04-17T17:02:53.132Z,4.28
2023-04-17T17:05:22.031Z,3.90
2023-04-17T17:07:50.659Z,3.78
2023-04-17T17:10:19.221Z,4.18
2023-04-17T17:12:47.561Z,4.10
2023-04-17T17:15:16.223Z,4.50
2023-04-17T17:17:44.683Z,3.53
2023-04-17T17:20:13.505Z,6.03
2023-04-17T17:22:41.934Z,6.65
2023-04-17T17:25:10.372Z,5.28
2023-04-17T17:27:39.131Z,9.23
2023-04-17T17:32:36.209Z,5.45
2023-04-17T17:35:04.833Z,4.60
2023-04-17T17:37:33.256Z,5.00
2023-04-17T17:40:03.641Z,5.75
2023-04-17T17:42:32.210Z,6.10
2023-04-17T17:45:00.731Z,7.45
2023-04-17T17:47:29.496Z,5.85
2023-04-17T17:49:58.111Z,5.35
2023-04-17T17:52:26.493Z,6.65
2023-04-17T17:54:55.125Z,7.70
2023-04-17T17:57:23.780Z,8.23
2023-04-17T17:59:52.330Z,8.80
2023-04-17T18:02:21.485Z,9.98
2023-04-17T18:04:49.819Z,6.47
2023-04-17T18:07:18.181Z,15.40
2023-04-17T18:09:48.394Z,14.38
2023-04-17T18:12:18.808Z,18.02
2023-04-17T18:14:47.139Z,14.15
2023-04-17T18:17:15.798Z,12.48
2023-04-17T18:19:44.640Z,9.43
2023-04-17T18:24:41.531Z,7.88
2023-04-17T18:27:10.015Z,9.95
2023-04-17T18:29:38.570Z,13.68
2023-04-17T18:32:07.134Z,10.20
2023-04-17T18:34:35.628Z,7.70
2023-04-17T18:37:04.448Z,19.05
2023-04-17T18:39:33.300Z,16.60
2023-04-17T18:42:02.170Z,15.77
2023-04-17T18:44:30.944Z,10.10
2023-04-17T18:46:59.455Z,11.00
2023-04-17T18:49:28.064Z,11.40
2023-04-17T18:51:56.656Z,11.30
2023-04-17T18:56:53.424Z,9.65
2023-04-17T18:59:21.933Z,9.77
2023-04-17T19:01:50.613Z,9.65
2023-04-17T19:04:19.264Z,6.63
2023-04-17T19:06:47.851Z,6.97
2023-04-17T19:09:16.287Z,7.53
2023-04-17T19:11:44.713Z,10.15
2023-04-17T19:14:13.321Z,10.65
2023-04-17T19:16:42.865Z,6.22
2023-04-17T19:19:13.951Z,7.07
2023-04-17T19:21:42.601Z,8.45
2023-04-17T19:24:11.221Z,9.98
2023-04-17T19:26:39.646Z,5.95
2023-04-17T19:29:08.089Z,8.23
2023-04-17T19:31:37.941Z,7.22
2023-04-17T19:34:07.419Z,5.07
2023-04-17T19:36:36.287Z,5.28
2023-04-17T19:39:05.366Z,3.97
2023-04-17T19:41:33.724Z,3.13
2023-04-17T19:44:02.343Z,4.70
2023-04-17T19:46:30.993Z,5.10
2023-04-17T19:48:58.997Z,3.38
2023-04-17T19:51:27.956Z,3.45
2023-04-17T19:53:56.732Z,5.45
2023-04-17T19:56:25.083Z,7.20
2023-04-17T19:58:53.927Z,8.73
2023-04-17T20:01:22.442Z,5.70
2023-04-17T20:03:51.760Z,6.50
2023-04-17T20:06:20.347Z,5.45
2023-04-17T20:08:50.417Z,6.50
2023-04-17T20:11:18.927Z,4.88
2023-04-17T20:13:47.094Z,5.13
2023-04-17T20:16:16.416Z,4.78
2023-04-17T20:18:46.078Z,6.10
2023-04-17T20:21:14.362Z,6.80
2023-04-17T20:23:42.407Z,5.03
2023-04-17T20:26:11.565Z,5.72
2023-04-17T20:28:39.654Z,3.70
2023-04-17T20:31:08.091Z,7.70
2023-04-17T20:33:36.063Z,4.68
2023-04-17T20:36:04.576Z,9.63
2023-04-17T20:41:01.086Z,8.05
2023-04-17T20:43:29.664Z,9.40
2023-04-17T20:45:59.172Z,5.82
2023-04-17T20:48:27.717Z,6.78
2023-04-17T20:50:55.798Z,6.45
2023-04-17T20:53:23.616Z,8.85
2023-04-17T20:55:52.100Z,9.13
2023-04-17T20:58:20.308Z,6.07
2023-04-17T21:03:22.772Z,6.18
2023-04-17T21:05:50.897Z,5.93
2023-04-17T21:08:18.826Z,6.18
2023-04-17T21:10:46.764Z,7.40
2023-04-17T21:13:14.818Z,8.18
2023-04-17T21:15:42.910Z,6.30
2023-04-17T21:18:10.991Z,9.77
2023-04-17T21:20:39.593Z,7.05
2023-04-17T21:23:07.693Z,6.47
2023-04-17T21:25:36.055Z,4.43
2023-04-17T21:28:04.203Z,4.68
2023-04-17T21:30:32.294Z,4.85
2023-04-17T21:33:00.377Z,6.57
2023-04-17T21:35:28.384Z,5.75
2023-04-17T21:37:56.307Z,9.55
2023-04-17T21:40:25.310Z,8.18
2023-04-17T21:42:53.956Z,5.40
2023-04-17T21:45:21.945Z,4.78
2023-04-17T21:47:50.105Z,3.83
2023-04-17T21:50:18.248Z,4.40
2023-04-17T21:52:46.127Z,3.55
2023-04-17T21:55:14.098Z,3.45
2023-04-17T21:57:42.078Z,3.35
2023-04-17T22:00:12.824Z,4.38
2023-04-17T22:02:40.812Z,3.75
2023-04-17T22:05:09.081Z,6.03
2023-04-17T22:07:47.362Z,4.93
2023-04-17T22:10:24.323Z,6.30
2023-04-17T22:12:52.450Z,7.20
2023-04-17T22:15:20.384Z,5.60
2023-04-17T22:17:48.568Z,5.18
2023-04-17T22:20:16.795Z,5.57
2023-04-17T22:22:47.292Z,5.43
2023-04-17T22:25:15.265Z,5.50
2023-04-17T22:27:43.144Z,3.92
2023-04-17T22:30:11.351Z,5.70
2023-04-17T22:32:39.531Z,8.15
2023-04-17T22:35:08.256Z,6.65
2023-04-17T22:37:36.258Z,8.18
2023-04-17T22:40:05.021Z,6.63
2023-04-17T22:42:32.909Z,6.68
2023-04-17T22:45:01.536Z,6.68
2023-04-17T22:47:29.404Z,7.50
2023-04-17T22:49:57.799Z,6.00
2023-04-17T22:52:25.600Z,5.75
2023-04-17T22:54:54.191Z,5.80
2023-04-17T22:57:21.997Z,8.52
2023-04-17T22:59:49.866Z,6.45
2023-04-17T23:02:17.867Z,7.45
2023-04-17T23:04:46.112Z,8.80
2023-04-17T23:07:13.967Z,7.65
2023-04-17T23:09:42.314Z,8.23
2023-04-17T23:12:10.140Z,7.93
2023-04-17T23:14:37.971Z,6.60
2023-04-17T23:17:06.772Z,8.70
2023-04-17T23:19:34.671Z,5.38
2023-04-17T23:22:02.672Z,6.43
2023-04-17T23:24:34.800Z,6.28
2023-04-17T23:27:03.011Z,7.38
2023-04-17T23:29:30.911Z,6.40
2023-04-17T23:31:58.807Z,5.93
2023-04-17T23:34:28.196Z,5.65
2023-04-17T23:36:56.244Z,6.00
2023-04-17T23:39:24.795Z,7.13
2023-04-17T23:41:52.661Z,7.95
2023-04-17T23:44:20.839Z,5.75
2023-04-17T23:46:48.757Z,4.97
2023-04-17T23:49:19.910Z,6.38
2023-04-17T23:51:47.795Z,7.25
2023-04-17T23:54:15.791Z,6.97
2023-04-17T23:56:43.997Z,6.72
2023-04-17T23:59:11.967Z,5.80
